METAR Data
IDs: Format: Raw Decoded Include TAF

Data at: 2153 UTC 22 Sep 2020

Region: TOP
KATL 222052Z 29006KT 10SM FEW050 FEW150 BKN180 BKN250 21/11 A3016 RMK AO2 SLP211 ACC S-W T02110106 56025

KBOS 222054Z 33012G21KT 10SM BKN240 OVC300 18/M03 A2981 RMK AO2 PK WND 32026/2029 SLP093 T01831028 56039

KBWI 222054Z 27012KT 10SM FEW250 22/05 A3002 RMK AO2 SLP165 T02220050 56028

KCLE 222151Z 29004KT 10SM SCT150 19/08 A3013

KCLT 222052Z 31004KT 10SM FEW250 22/08 A3015 RMK AO2 SLP207 T02220078 56028 $

KCVG 222052Z 00000KT 10SM FEW070 FEW250 BKN300 23/05 A3016 RMK AO2 SLP206 T02330050 56024 $

KDCA 222052Z 30007G16KT 10SM FEW250 22/06 A3005 RMK AO2 SLP174 FU FEW250 T02170056 56032

KDEN 222053Z 14006KT 10SM SCT100 BKN150 BKN220 29/02 A3010 RMK AO2 LTG DSNT S SLP115 VIRGA T02940017 56018

KDFW 222129Z 05007KT 9SM BKN007 OVC016 21/21 A2997 RMK AO2 DZE29 CIG 004V012 P0000 T02110206

KDTW 222053Z 15006KT 10SM SCT150 BKN250 22/11 A3012 RMK AO2 SLP199 T02220106 56023

KEWR 222051Z 34018G22KT 10SM SCT300 23/M01 A2992 RMK AO2 SLP131 FU SCT300 T02331011 56036

KFLL 222053Z 06012KT 10SM SCT041 SCT070 BKN250 30/20 A2995 RMK AO2 SLP141 T03000200 56014

KIAD 222052Z 32011KT 10SM CLR 22/06 A3005 RMK AO2 SLP175 T02170056 56034

KIAH 222053Z 05014KT 7SM -RA OVC007 26/24 A2981 RMK AO2 RAE26B48 SLP094 P0003 60009 T02560244 56023

KJFK 222051Z 30012G21KT 10SM FEW250 SCT300 23/02 A2991 RMK AO2 PK WND 34026/2022 SLP128 FU SCT300 T02280017 56037 $

KLAS 222056Z 25013G22KT 10SM FEW120 36/01 A2995 RMK AO2 SLP113 HZ AND FU VC ALQDS T03610006 58017

KLAX 222053Z 25010KT 7SM FEW060 22/16 A3000 RMK AO2 SLP157 FU FEW060 T02220161 56011

KLGA 222051Z 32014KT 10SM SCT250 23/03 A2990 RMK AO2 SLP125 T02330033 56038 $

KMCO 222053Z 06015KT 10SM FEW040 BKN070 BKN250 27/18 A3003 RMK AO2 SLP168 T02720178 56014

KMDW 222053Z 23009KT 10SM FEW250 26/11 A3010 RMK AO2 SLP187 T02560111 56022

KMEM 222054Z 08008KT 10SM SCT080 BKN100 BKN250 23/13 A3012 RMK AO2 SLP196 60000 T02280133 56023 $

KMIA 222053Z 05014G20KT 10SM SCT043 SCT130 BKN250 29/19 A2995 RMK AO2 SLP143 T02940194 56012

KMSP 222053Z 20009KT 10SM CLR 28/14 A3001 RMK AO2 SLP158 T02780139 56022

KORD 222051Z 24008KT 10SM FEW170 26/12 A3010 RMK AO2 SLP189 T02610117 56021

KPDX 222053Z 35004KT 10SM SCT040 SCT250 22/13 A3001 RMK AO2 SLP160 T02220128 58016

KPHL 222054Z 30011KT 10SM FEW300 23/02 A2997 RMK AO2 SLP146 T02280022 58033 $

KPHX 222051Z 18008KT 10SM FEW100 FEW140 FEW170 38/10 A2991 RMK AO2 SLP106 T03830100 58024

KPIT 222051Z 30006KT 10SM FEW250 20/04 A3013 RMK AO2 SLP210 T02000044 56027

KSAN 222051Z 30010KT 10SM FEW010 26/17 A2999 RMK AO2 SLP155 T02560167 58014

KSEA 222053Z 24008KT 10SM FEW030 BKN250 21/09 A3001 RMK AO2 SLP167 T02110094 58011

KSFO 222056Z 30018KT 10SM FEW015 21/13 A3005 RMK AO2 SLP175 T02110128 56007

KSLC 222054Z 18015KT 10SM FEW060 SCT090CB BKN140 BKN240 29/05 A3005 RMK AO2 SLP114 VIRGA FU FEW060 FU DSNT SE CB S-SW MOV NE AND DSNT NE TCU N AND DSNT E-SE T02890050 58014

KSTL 222051Z 09005KT 10SM FEW130 BKN250 24/11 A3014 RMK AO2 SLP198 T02390111 56024 $

KTPA 222053Z 07008G20KT 050V120 10SM SCT042 SCT070 BKN140 BKN250 29/17 A3000 RMK AO2 SLP159 T02890172 56016